Time;durP1;ratioP1;P1;durP2;ratioP2;P2;SDS_P1;SDS_P2;PMS_P1;PMS_P2;Temp;Humidity;BMP_temperature;BMP_pressure;BME280_temperature;BME280_humidity;BME280_pressure;Samples;Min_cycle;Max_cycle;Signal;HPM_P1;HPM_P2
2023/03/18 00:07:26;;;;;;;0.33;0.33;;;;;;;;;;645215;217;34320;-81
2023/03/18 00:15:44;;;;;;;0.20;0.20;;;;;;;;;;645131;218;32364;-82
2023/03/18 00:21:06;;;;;;;0.00;0.00;;;;;;;;;;653631;217;32637;-79
2023/03/18 00:58:44;;;;;;;0.00;0.00;;;;;;;;;;645024;217;43117;-82
2023/03/18 01:04:07;;;;;;;0.75;0.75;;;;;;;;;;644968;218;32358;-79
2023/03/18 02:58:03;;;;;;;1.33;1.25;;;;;;;;;;645167;217;32314;-82
2023/03/18 03:03:27;;;;;;;1.60;0.93;;;;;;;;;;645093;217;35352;-83
2023/03/18 06:10:27;;;;;;;1.80;1.70;;;;;;;;;;645118;217;42842;-82
2023/03/18 06:15:51;;;;;;;6.13;2.57;;;;;;;;;;645052;217;35344;-83
2023/03/18 06:21:15;;;;;;;3.10;2.70;;;;;;;;;;653620;217;32463;-84
2023/03/18 06:26:37;;;;;;;6.60;2.37;;;;;;;;;;653755;217;33260;-84
2023/03/18 06:31:59;;;;;;;2.00;1.50;;;;;;;;;;645118;218;32386;-83
2023/03/18 07:00:46;;;;;;;1.30;1.30;;;;;;;;;;645122;217;32334;-81
2023/03/18 07:09:06;;;;;;;3.92;2.65;;;;;;;;;;653590;218;32471;-83
2023/03/18 07:14:28;;;;;;;6.30;2.30;;;;;;;;;;645110;218;32449;-85
2023/03/18 07:19:50;;;;;;;2.00;1.52;;;;;;;;;;653624;217;43063;-81
2023/03/18 07:39:55;;;;;;;4.43;2.42;;;;;;;;;;653660;217;32354;-85
2023/03/18 07:56:58;;;;;;;2.95;2.47;;;;;;;;;;645109;217;32365;-82
2023/03/18 08:02:20;;;;;;;3.40;3.10;;;;;;;;;;645120;217;32427;-83
2023/03/18 08:07:42;;;;;;;2.50;2.10;;;;;;;;;;645030;217;32399;-82
2023/03/18 08:13:06;;;;;;;4.10;2.90;;;;;;;;;;653611;217;32355;-85
2023/03/18 08:18:29;;;;;;;5.28;2.83;;;;;;;;;;653644;218;32366;-82
2023/03/18 08:23:51;;;;;;;3.47;2.37;;;;;;;;;;659242;217;29324;-82
2023/03/18 08:29:13;;;;;;;3.58;1.85;;;;;;;;;;653597;218;32774;-79
2023/03/18 08:46:19;;;;;;;3.37;2.50;;;;;;;;;;645117;217;32378;-78
2023/03/18 08:54:40;;;;;;;11.07;2.37;;;;;;;;;;645108;217;32394;-79
2023/03/18 09:02:57;;;;;;;2.85;2.28;;;;;;;;;;653619;218;32683;-84
2023/03/18 09:08:19;;;;;;;0.52;0.52;;;;;;;;;;637946;217;32520;-84
2023/03/18 09:13:43;;;;;;;2.30;1.98;;;;;;;;;;644872;217;32476;-83
2023/03/18 09:19:05;;;;;;;3.45;2.87;;;;;;;;;;645049;217;32367;-81
2023/03/18 09:24:30;;;;;;;4.10;2.10;;;;;;;;;;644995;217;32386;-81
2023/03/18 09:29:52;;;;;;;2.95;2.17;;;;;;;;;;644987;217;32437;-79
2023/03/18 09:35:16;;;;;;;3.92;3.53;;;;;;;;;;646837;218;32328;-79
2023/03/18 09:46:43;;;;;;;4.40;1.73;;;;;;;;;;645129;217;32366;-80
2023/03/18 09:52:15;;;;;;;2.70;2.37;;;;;;;;;;645064;218;32389;-84
2023/03/18 09:57:37;;;;;;;1.65;1.55;;;;;;;;;;645097;217;32372;-85
2023/03/18 10:05:55;;;;;;;1.90;1.40;;;;;;;;;;653657;217;32450;-79
2023/03/18 10:11:17;;;;;;;2.22;1.67;;;;;;;;;;645113;218;32390;-81
2023/03/18 10:16:41;;;;;;;1.10;0.90;;;;;;;;;;644961;217;32366;-81
2023/03/18 10:22:03;;;;;;;4.32;1.08;;;;;;;;;;645093;217;32373;-80
2023/03/18 10:27:26;;;;;;;1.35;1.25;;;;;;;;;;641146;217;32356;-78
2023/03/18 10:32:48;;;;;;;3.17;1.90;;;;;;;;;;653629;217;32607;-80
2023/03/18 10:38:13;;;;;;;0.60;0.60;;;;;;;;;;644362;217;43094;-82
2023/03/18 10:46:30;;;;;;;3.12;2.55;;;;;;;;;;645085;218;32403;-80
2023/03/18 10:51:53;;;;;;;1.55;1.45;;;;;;;;;;644474;217;32373;-80
2023/03/18 10:57:17;;;;;;;1.02;0.93;;;;;;;;;;645073;217;32386;-83
2023/03/18 11:02:39;;;;;;;0.85;0.85;;;;;;;;;;645089;217;32442;-82
2023/03/18 11:08:03;;;;;;;1.67;1.50;;;;;;;;;;641356;216;32449;-78
2023/03/18 11:13:26;;;;;;;1.55;1.45;;;;;;;;;;645140;217;43032;-82
2023/03/18 11:18:48;;;;;;;2.47;0.88;;;;;;;;;;637914;217;43202;-78
2023/03/18 11:24:19;;;;;;;1.15;1.05;;;;;;;;;;633687;217;32557;-83
2023/03/18 11:29:42;;;;;;;2.50;1.20;;;;;;;;;;644915;217;32378;-82
2023/03/18 11:35:07;;;;;;;5.60;0.85;;;;;;;;;;645089;217;32409;-82
2023/03/18 11:40:30;;;;;;;0.47;0.47;;;;;;;;;;651335;217;32544;-82
2023/03/18 11:45:51;;;;;;;0.30;0.30;;;;;;;;;;645079;217;32421;-85
2023/03/18 11:51:16;;;;;;;0.20;0.20;;;;;;;;;;644054;217;32338;-84
2023/03/18 11:56:43;;;;;;;0.62;0.62;;;;;;;;;;644433;217;32385;-83
2023/03/18 11:59:32;;;;;;;1.05;0.62;;;;;;;;;;634771;225;22692;-84
2023/03/18 12:04:56;;;;;;;0.50;0.50;;;;;;;;;;643166;218;32370;-82
2023/03/18 12:10:21;;;;;;;1.65;1.25;;;;;;;;;;644871;217;32495;-83
2023/03/18 12:15:43;;;;;;;0.30;0.30;;;;;;;;;;645101;217;32391;-81
2023/03/18 12:21:08;;;;;;;0.20;0.20;;;;;;;;;;643220;216;32435;-83
2023/03/18 12:26:35;;;;;;;0.28;0.28;;;;;;;;;;653011;217;32240;-80
2023/03/18 12:32:05;;;;;;;0.62;0.62;;;;;;;;;;642294;217;32360;-83
2023/03/18 12:37:33;;;;;;;0.60;0.60;;;;;;;;;;644925;217;32396;-83
2023/03/18 12:40:22;;;;;;;0.62;0.62;;;;;;;;;;639812;224;22650;-84
2023/03/18 12:45:49;;;;;;;0.40;0.40;;;;;;;;;;653067;217;32372;-82
2023/03/18 12:51:11;;;;;;;3.00;1.12;;;;;;;;;;649875;217;32472;-80
2023/03/18 13:02:25;;;;;;;0.35;0.35;;;;;;;;;;645050;217;32338;-83
2023/03/18 13:07:50;;;;;;;0.40;0.37;;;;;;;;;;644507;217;32366;-82
2023/03/18 13:16:11;;;;;;;2.78;1.23;;;;;;;;;;644528;217;32559;-83
2023/03/18 13:21:35;;;;;;;0.20;0.20;;;;;;;;;;653564;217;32642;-87
2023/03/18 13:27:02;;;;;;;0.47;0.43;;;;;;;;;;644979;217;32376;-84
2023/03/18 13:35:24;;;;;;;0.45;0.45;;;;;;;;;;645143;217;32398;-85
2023/03/18 13:40:51;;;;;;;0.45;0.45;;;;;;;;;;653540;218;32366;-85
2023/03/18 13:46:12;;;;;;;0.30;0.30;;;;;;;;;;645135;217;32414;-80
2023/03/18 13:51:35;;;;;;;0.45;0.45;;;;;;;;;;645088;218;32425;-85
2023/03/18 13:59:52;;;;;;;0.62;0.43;;;;;;;;;;645037;217;32406;-82
2023/03/18 14:02:44;;;;;;;1.60;0.93;;;;;;;;;;634514;224;22703;-82
2023/03/18 14:05:28;;;;;;;0.70;0.70;;;;;;;;;;623168;226;22734;-83
2023/03/18 14:10:50;;;;;;;0.20;0.20;;;;;;;;;;645081;218;32327;-81
2023/03/18 14:16:22;;;;;;;0.73;0.73;;;;;;;;;;646918;215;32492;-84
2023/03/18 14:36:46;;;;;;;0.50;0.50;;;;;;;;;;653635;217;32381;-80
2023/03/18 14:59:59;;;;;;;0.80;0.80;;;;;;;;;;645007;217;32693;-81
2023/03/18 16:39:40;;;;;;;0.50;0.50;;;;;;;;;;653609;217;32338;-83
2023/03/18 16:45:04;;;;;;;0.98;0.68;;;;;;;;;;630485;221;32675;-81
2023/03/18 17:11:09;;;;;;;0.40;0.40;;;;;;;;;;653637;217;43062;-81
2023/03/18 23:00:20;;;;;;;0.93;0.77;;;;;;;-145.16;100.00;78291.14;651258;217;33348;-84
